Flight Track Log - Related Links

Times and Time Zones

All times are in EDT time to prevent confusion due to time zone crossing. See the SKW5517 flight status page for this flight to view local times or setup timezone preferences in your user account.

Time Position Orientation Groundspeed Altitude Reporting Facility
EDT Latitude Longitude Course Direction KTS MPH feet Rate Location/Type
Sat 07:12:53 PM 33.9342 -118.4389 288° West 160 184 1,900  Level Los Angeles Center
Sat 07:13:55 PM 33.9247 -118.5139 261° West 210 242 4,600 2,565 Climbing Los Angeles Center
Sat 07:14:57 PM 33.9153 -118.5817 260° West 209 241 7,200 2,390 Climbing Los Angeles Center
Sat 07:15:00 PM 34.0690 -118.8975 296° West  Level FlightAware Approximate
Sat 07:15:58 PM 33.9056 -118.6578 261° West 226 260 9,500  Level Los Angeles Center
Sat 07:16:00 PM 34.1000 -119.0220 270° West  Level FlightAware Approximate
Sat 07:17:00 PM 34.1607 -119.1214 301° West  Level FlightAware Approximate
Sat 07:17:00 PM 33.8928 -118.7519 261° West 274 315 11,100  Level Los Angeles Center
Sat 07:18:00 PM 33.9768 -118.5325 288° West  Level FlightAware Approximate
Sat 07:18:02 PM 33.8822 -118.8472 262° West 296 341 13,000  Level Los Angeles Center
Sat 07:19:03 PM 33.9292 -118.9339 303° West 310 357 14,200 1,366 Climbing Los Angeles Center
Sat 07:20:05 PM 33.9883 -119.0178 310° West 325 374 15,800 1,512 Climbing Los Angeles Center
Sat 07:21:06 PM 34.0489 -119.1042 310° West 333 383 17,300 1,463 Climbing Los Angeles Center
Sat 07:22:08 PM 34.1108 -119.1936 310° West 345 397 18,800 1,500 Climbing Los Angeles Center
Sat 07:23:10 PM 34.1861 -119.3019 310° West 348 400 20,400 1,415 Climbing Los Angeles Center
Sat 07:24:11 PM 34.2497 -119.3933 310° West 352 405 21,700 1,122 Climbing Los Angeles Center
Sat 07:25:13 PM 34.3119 -119.4864 309° West 355 409 22,700 1,016 Climbing Los Angeles Center
Sat 07:26:15 PM 34.3775 -119.5825 310° West 362 417 23,800 968 Climbing Los Angeles Center
Sat 07:27:17 PM 34.4433 -119.6767 310° West 366 421 24,700 732 Climbing Los Angeles Center
Sat 07:28:18 PM 34.5100 -119.7733 310° West 370 426 25,300 634 Climbing Los Angeles Center
Sat 07:29:20 PM 34.5994 -119.8478 326° Northwest 384 442 26,000 677 Climbing Los Angeles Center
Sat 07:30:22 PM 34.7069 -119.9331 327° Northwest 385 443 26,700 634 Climbing Los Angeles Center
Sat 07:31:23 PM 34.7978 -120.0081 326° Northwest 389 448 27,300 585 Climbing Los Angeles Center
Sat 07:32:25 PM 34.8878 -120.0831 326° Northwest 391 450 27,900 581 Climbing Los Angeles Center
Sat 07:33:27 PM 34.9747 -120.1553 326° Northwest 394 453 28,500 484 Climbing Los Angeles Center
Sat 07:34:29 PM 35.0650 -120.2306 326° Northwest 395 455 28,900 488 Climbing Los Angeles Center
Sat 07:35:30 PM 35.1564 -120.3072 326° Northwest 397 457 29,500 585 Climbing Los Angeles Center
Sat 07:36:32 PM 35.2656 -120.3972 326° Northwest 398 458 30,100 532 Climbing Los Angeles Center
Sat 07:37:34 PM 35.3550 -120.4750 325° Northwest 398 458 30,600 581 Climbing Los Angeles Center
Sat 07:38:36 PM 35.4450 -120.5558 324° Northwest 402 463 31,300 683 Climbing Los Angeles Center
Sat 07:39:37 PM 35.5044 -120.6656 304° West 387 445 32,000 341 Climbing Los Angeles Center
Sat 07:40:39 PM 35.5656 -120.7761 304° West 388 447 32,000  Level Los Angeles Center
Sat 07:41:41 PM 35.6250 -120.8908 303° West 396 456 32,000  Level Los Angeles Center
Sat 07:42:43 PM 35.7228 -121.0017 317° Northwest 410 472 32,000  Level Los Angeles Center
Sat 07:43:45 PM 35.8147 -121.0883 323° Northwest 413 475 32,000  Level Los Angeles Center
Sat 07:44:46 PM 35.9075 -121.1686 325° Northwest 411 473 32,000  Level Los Angeles Center
Sat 07:46:12 PM 36.0522 -121.2467 336° Northwest 405 466 32,000  Level Oakland Center
Sat 07:47:13 PM 36.1492 -121.3022 335° Northwest 390 449 32,000  Level Oakland Center
Sat 07:48:14 PM 36.2456 -121.3586 335° Northwest 385 443 32,000  Level Oakland Center
Sat 07:49:15 PM 36.3636 -121.4256 335° Northwest 385 443 32,000  Level Oakland Center
Sat 07:50:16 PM 36.4619 -121.4839 334° Northwest 388 447 32,000  Level Oakland Center
Sat 07:51:18 PM 36.5608 -121.5417 335° Northwest 388 447 32,000  Level Oakland Center
Sat 07:52:19 PM 36.6597 -121.5978 336° Northwest 389 448 32,000  Level Oakland Center
Sat 07:53:20 PM 36.7703 -121.6117 354° North 397 457 32,000  Level Oakland Center
Sat 07:54:21 PM 36.8778 -121.6219 356° North 396 456 32,000  Level Oakland Center
Sat 07:55:22 PM 36.9875 -121.6308 356° North 396 456 32,000  Level Oakland Center
Sat 07:56:23 PM 37.0956 -121.6408 356° North 393 452 32,000  Level Oakland Center
Sat 07:57:24 PM 37.2039 -121.6497 356° North 391 450 32,000  Level Oakland Center
Sat 07:58:25 PM 37.3108 -121.6581 356° North 389 448 32,000  Level Oakland Center
Sat 07:59:26 PM 37.4361 -121.6675 357° North 385 443 32,000  Level Oakland Center
Sat 08:00:27 PM 37.5406 -121.6778 356° North 379 436 32,000  Level Oakland Center
Sat 08:01:28 PM 37.6436 -121.6864 356° North 377 434 32,000  Level Oakland Center
Sat 08:02:30 PM 37.7478 -121.6944 357° North 377 434 32,000  Level Oakland Center
Sat 08:03:31 PM 37.8503 -121.7033 356° North 375 432 32,000  Level Oakland Center
Sat 08:04:32 PM 37.9608 -121.7125 356° North 376 433 32,000  Level Oakland Center
Sat 08:05:33 PM 38.0644 -121.7197 357° North 375 432 32,000  Level Oakland Center
Sat 08:06:34 PM 38.1622 -121.7289 356° North 375 432 32,000  Level Oakland Center
Sat 08:07:35 PM 38.2658 -121.7375 356° North 375 432 32,000  Level Oakland Center
Sat 08:08:36 PM 38.3908 -121.7486 356° North 375 432 32,000  Level Oakland Center
Sat 08:09:36 PM 38.4869 -121.7564 356° North 377 434 32,000  Level Oakland Center
Sat 08:10:37 PM 38.5939 -121.7661 356° North 377 434 32,000  Level Oakland Center
Sat 08:11:38 PM 38.6997 -121.7739 357° North 378 435 32,000  Level Oakland Center
Sat 08:12:39 PM 38.8069 -121.7850 355° North 379 436 32,000  Level Oakland Center
Sat 08:13:40 PM 38.9144 -121.7939 356° North 381 438 32,000  Level Oakland Center
Sat 08:14:41 PM 39.0208 -121.8028 356° North 381 438 32,000  Level Oakland Center
Sat 08:15:42 PM 39.1275 -121.8111 357° North 382 440 32,000  Level Oakland Center
Sat 08:16:43 PM 39.2325 -121.8211 356° North 381 438 32,000  Level Oakland Center
Sat 08:17:44 PM 39.3367 -121.8294 356° North 378 435 32,000  Level Oakland Center
Sat 08:18:45 PM 39.4603 -121.8403 356° North 374 430 32,000  Level Oakland Center
Sat 08:19:46 PM 39.5547 -121.8486 356° North 370 426 32,000  Level Oakland Center
Sat 08:20:47 PM 39.6556 -121.8578 356° North 369 425 32,000  Level Oakland Center
Sat 08:21:48 PM 39.7558 -121.8656 357° North 365 420 32,000  Level Oakland Center
Sat 08:22:49 PM 39.8558 -121.8742 356° North 365 420 32,000  Level Oakland Center
Sat 08:23:50 PM 39.9544 -121.8833 356° North 361 415 32,000  Level Oakland Center
Sat 08:24:51 PM 40.0539 -121.8919 356° North 361 415 32,000  Level Oakland Center
Sat 08:25:52 PM 40.1703 -121.9031 356° North 357 411 32,000  Level Oakland Center
Sat 08:26:53 PM 40.2678 -121.9117 356° North 356 410 32,000  Level Oakland Center
Sat 08:27:54 PM 40.3661 -121.9214 356° North 355 409 32,000  Level Oakland Center
Sat 08:28:55 PM 40.4633 -121.9297 356° North 354 407 32,000  Level Oakland Center
Sat 08:29:56 PM 40.5625 -121.9403 355° North 359 413 32,000  Level Oakland Center
Sat 08:30:57 PM 40.6608 -121.9469 357° North 358 412 32,000  Level Oakland Center
Sat 08:31:58 PM 40.7583 -121.9569 356° North 356 410 32,000  Level Oakland Center
Sat 08:32:59 PM 40.8558 -121.9656 356° North 353 406 32,000  Level Oakland Center
Sat 08:34:00 PM 40.9536 -121.9761 355° North 354 407 32,000  Level Oakland Center
Sat 08:35:01 PM 41.0711 -121.9869 356° North 354 407 32,000  Level Oakland Center
Sat 08:36:02 PM 41.1706 -121.9978 355° North 355 409 32,000  Level Oakland Center
Sat 08:37:03 PM 41.2683 -122.0069 356° North 355 409 32,000  Level Oakland Center
Sat 08:38:04 PM 41.3589 -122.0147 356° North 354 407 32,000  Level Oakland Center
Sat 08:39:05 PM 41.4569 -122.0244 356° North 354 407 32,000  Level Oakland Center
Sat 08:40:06 PM 41.5542 -122.0328 356° North 354 407 32,000  Level Oakland Center
Sat 08:41:07 PM 41.6522 -122.0417 356° North 354 407 32,000  Level Oakland Center
Sat 08:42:08 PM 41.7494 -122.0511 356° North 353 406 32,000  Level Oakland Center
Sat 08:43:09 PM 41.8461 -122.0603 356° North 352 405 32,000  Level Oakland Center
Sat 08:44:10 PM 41.9431 -122.0697 356° North 348 400 32,000  Level Oakland Center
Sat 08:45:11 PM 42.0414 -122.0800 356° North 348 400 32,000  Level Oakland Center
Sat 08:46:12 PM 42.1408 -122.0886 356° North 348 400 32,000  Level Oakland Center
Sat 08:47:13 PM 42.2361 -122.0969 356° North 344 396 32,000  Level Oakland Center
Sat 08:48:35 PM 42.3686 -122.1094 356° North 338 389 32,000  Level Seattle Center
Sat 08:49:36 PM 42.4631 -122.1186 356° North 338 389 32,000  Level Seattle Center
Sat 08:50:37 PM 42.5583 -122.1275 356° North 339 390 32,000  Level Seattle Center
Sat 08:51:37 PM 42.6536 -122.1364 356° North 340 391 32,000  Level Seattle Center
Sat 08:52:38 PM 42.7483 -122.1464 356° North 340 391 32,000  Level Seattle Center
Sat 08:53:39 PM 42.8433 -122.1569 355° North 341 392 32,000  Level Seattle Center
Sat 08:54:39 PM 42.9369 -122.1708 354° North 341 392 32,000  Level Seattle Center
Sat 08:55:40 PM 43.0272 -122.2150 340° North 332 382 32,000  Level Seattle Center
Sat 08:56:41 PM 43.1156 -122.2567 341° North 334 384 32,000  Level Seattle Center
Sat 08:57:42 PM 43.2044 -122.2981 341° North 335 386 32,000  Level Seattle Center
Sat 08:58:42 PM 43.3108 -122.3472 341° North 336 387 32,000  Level Seattle Center
Sat 08:59:43 PM 43.3975 -122.3906 340° North 334 384 32,000  Level Seattle Center
Sat 09:00:44 PM 43.4864 -122.4311 342° North 336 387 32,000  Level Seattle Center
Sat 09:01:44 PM 43.5758 -122.4728 341° North 336 387 32,000  Level Seattle Center
Sat 09:02:45 PM 43.6622 -122.5156 340° North 335 386 32,000 -98 Level Seattle Center
Sat 09:03:46 PM 43.7511 -122.5589 341° North 335 386 31,800 -590 Descending Seattle Center
Sat 09:04:47 PM 43.8444 -122.6031 341° North 364 419 30,800 -992 Descending Seattle Center
Sat 09:05:47 PM 43.9381 -122.6489 341° North 363 418 29,800 -1,190 Descending Seattle Center
Sat 09:06:48 PM 44.0328 -122.6928 342° North 363 418 28,400 -1,475 Descending Seattle Center
Sat 09:07:49 PM 44.1225 -122.7367 341° North 349 402 26,800 -1,636 Descending Seattle Center
Sat 09:08:49 PM 44.2147 -122.7447 356° North 346 398 25,100 -1,587 Descending Seattle Center
Sat 09:09:50 PM 44.3058 -122.7369 North 333 383 23,600 -1,426 Descending Seattle Center
Sat 09:10:51 PM 44.3917 -122.7281 North 324 373 22,200 -1,339 Descending Seattle Center
Sat 09:11:51 PM 44.4750 -122.7194 North 308 354 20,900 -1,289 Descending Seattle Center
Sat 09:12:52 PM 44.5544 -122.7117 North 295 339 19,600 -1,426 Descending Seattle Center
Sat 09:13:53 PM 44.6461 -122.7044 North 279 321 18,000 -1,405 Descending Seattle Center
Sat 09:14:43 PM 44.7108 -122.6981 North 272 313 17,000 -1,200 Descending Seattle Center
Sat 09:14:53 PM 44.7214 -122.6981 360° North 278 320 16,800 -1,268 Descending Seattle Center
Sat 09:15:54 PM 44.8022 -122.6886 North 285 328 15,500 -1,280 Descending Seattle Center
Sat 09:16:08 PM 44.8214 -122.6872 North 294 338 15,200 -1,180 Descending Seattle Center
Sat 09:16:55 PM 44.8817 -122.6794 North 288 331 14,300 -1,148 Descending Seattle Center
Sat 09:18:03 PM 44.9656 -122.6719 North 261 300 13,000 -1,190 Descending Seattle Center
Sat 09:18:56 PM 45.0314 -122.6642 North 268 308 11,900 -1,240 Descending Seattle Center
Sat 09:20:04 PM 45.1142 -122.6578 North 263 303 10,500 -1,230 Descending Seattle Center
Sat 09:20:58 PM 45.1800 -122.6494 North 257 296 9,400 -1,211 Descending Seattle Center
Sat 09:21:58 PM 45.2506 -122.6394 North 256 295 8,200 -1,190 Descending Seattle Center
Sat 09:22:59 PM 45.3117 -122.5875 31° Northeast 257 296 7,000 -1,180 Descending Seattle Center
Sat 09:24:00 PM 45.3644 -122.5394 33° Northeast 231 266 5,800 -992 Descending Seattle Center
Sat 09:25:00 PM 45.4147 -122.4956 31° Northeast 216 249 5,000 -649 Descending Seattle Center
Sat 09:25:14 PM 45.4239 -122.4856 37° Northeast 207 238 5,000 -689 Level Seattle Center
Sat 09:26:01 PM 45.4292 -122.4289 82° East 216 249 4,300 -722 Descending Seattle Center
Sat 09:27:02 PM 45.4222 -122.3503 97° East 208 239 3,700 -496 Descending Seattle Center
Sat 09:28:02 PM 45.4750 -122.3317 14° North 197 227 3,300 -295 Descending Seattle Center
Sat 09:29:04 PM 45.5086 -122.3800 315° West 200 230 3,100 -372 Descending Seattle Center
Sat 09:30:11 PM 45.5383 -122.4508 301° West 168 193 2,500 -850 Descending Seattle Center
Sat 09:31:04 PM 45.5556 -122.4964 298° West 159 183 1,400 -1,046 Descending Seattle Center
Sat 09:32:00 PM 45.5708 -122.5364 299° West 126 145 600 -857 Descending Seattle Center

Login

Don't have an account? Register now (free) for customized features, flight alerts, and more!